createdAt,value
2022-09-28T00:01:24.409Z,12.12
2022-09-28T00:03:54.639Z,12.12
2022-09-28T00:06:24.707Z,12.10
2022-09-28T00:08:53.286Z,12.06
2022-09-28T00:11:22.430Z,12.07
2022-09-28T00:13:52.533Z,12.10
2022-09-28T00:16:22.368Z,12.13
2022-09-28T00:18:51.449Z,12.12
2022-09-28T00:21:27.062Z,12.13
2022-09-28T00:24:15.058Z,12.12
2022-09-28T00:26:54.300Z,12.03
2022-09-28T00:29:24.170Z,11.96
2022-09-28T00:32:02.357Z,11.92
2022-09-28T00:34:32.173Z,11.83
2022-09-28T00:36:59.933Z,11.77
2022-09-28T00:39:27.398Z,11.68
2022-09-28T00:41:55.107Z,11.62
2022-09-28T00:44:24.918Z,11.57
2022-09-28T00:47:03.757Z,11.55
2022-09-28T00:49:36.868Z,11.51
2022-09-28T00:52:05.904Z,11.47
2022-09-28T00:54:32.826Z,11.44
2022-09-28T00:57:01.978Z,11.46
2022-09-28T00:59:30.170Z,11.46
2022-09-28T01:01:57.071Z,11.46
2022-09-28T01:04:27.968Z,11.50
2022-09-28T01:06:58.153Z,11.49
2022-09-28T01:09:27.551Z,11.49
2022-09-28T01:11:55.350Z,11.50
2022-09-28T01:14:25.899Z,11.53
2022-09-28T01:17:01.527Z,11.54
2022-09-28T01:19:56.124Z,11.54
2022-09-28T01:22:34.842Z,11.53
2022-09-28T01:25:30.010Z,11.54
2022-09-28T01:28:06.714Z,11.56
2022-09-28T01:30:43.436Z,11.58
2022-09-28T01:33:14.697Z,11.58
2022-09-28T01:35:49.340Z,11.56
2022-09-28T01:38:30.286Z,11.54
2022-09-28T01:40:59.693Z,11.53
2022-09-28T01:43:28.884Z,11.51
2022-09-28T01:45:58.386Z,11.50
2022-09-28T01:48:51.047Z,11.49
2022-09-28T01:51:51.414Z,11.48
2022-09-28T01:55:01.659Z,11.45
2022-09-28T01:57:40.054Z,11.48
2022-09-28T02:00:09.083Z,11.48
2022-09-28T02:02:42.508Z,11.47
2022-09-28T02:05:20.840Z,11.45
2022-09-28T02:08:09.440Z,11.44
2022-09-28T02:10:45.060Z,11.41
2022-09-28T02:13:11.823Z,11.41
2022-09-28T02:16:16.544Z,11.35
2022-09-28T02:18:45.151Z,11.34
2022-09-28T02:21:18.234Z,11.28
2022-09-28T02:23:54.186Z,11.25
2022-09-28T02:26:25.022Z,11.22
2022-09-28T02:28:51.795Z,11.21
2022-09-28T02:31:19.071Z,11.21
2022-09-28T02:33:47.713Z,11.18
2022-09-28T02:36:15.062Z,11.17
2022-09-28T02:38:42.053Z,11.17
2022-09-28T02:41:33.986Z,11.16
2022-09-28T02:44:29.745Z,11.14
2022-09-28T02:47:01.373Z,11.11
2022-09-28T02:49:37.163Z,11.09
2022-09-28T02:52:48.344Z,11.03
2022-09-28T02:55:53.862Z,10.99
2022-09-28T02:58:39.125Z,10.97
2022-09-28T03:01:11.859Z,10.95
2022-09-28T03:04:04.953Z,10.92
2022-09-28T03:06:44.124Z,10.88
2022-09-28T03:09:25.970Z,10.86
2022-09-28T03:12:04.718Z,10.85
2022-09-28T03:14:31.526Z,10.82
2022-09-28T03:16:58.261Z,10.83
2022-09-28T03:19:30.728Z,10.81
2022-09-28T03:21:57.563Z,10.81
2022-09-28T03:24:24.433Z,10.81
2022-09-28T03:26:51.506Z,10.83
2022-09-28T03:29:20.392Z,10.84
2022-09-28T03:31:48.180Z,10.88
2022-09-28T03:34:15.466Z,10.87
2022-09-28T03:36:43.149Z,10.86
2022-09-28T03:39:10.079Z,10.80
2022-09-28T03:41:37.144Z,10.78
2022-09-28T03:44:04.242Z,10.76
2022-09-28T03:46:31.125Z,10.76
2022-09-28T03:48:59.485Z,10.76
2022-09-28T03:51:26.837Z,10.78
2022-09-28T03:53:53.687Z,10.78
2022-09-28T03:56:20.566Z,10.77
2022-09-28T03:58:47.392Z,10.77
2022-09-28T04:01:18.300Z,10.72
2022-09-28T04:03:45.964Z,10.71
2022-09-28T04:06:13.199Z,10.70
2022-09-28T04:08:40.189Z,10.70
2022-09-28T04:11:07.024Z,10.69
2022-09-28T04:13:35.266Z,10.70
2022-09-28T04:16:02.612Z,10.68
2022-09-28T04:18:29.656Z,10.66
2022-09-28T04:21:06.944Z,10.63
2022-09-28T04:23:40.201Z,10.59
2022-09-28T04:26:10.549Z,10.59
2022-09-28T04:28:55.813Z,10.59
2022-09-28T04:31:24.714Z,10.57
2022-09-28T04:33:51.669Z,10.56
2022-09-28T04:36:19.927Z,10.57
2022-09-28T04:38:53.083Z,10.57
2022-09-28T04:41:22.645Z,10.55
2022-09-28T04:43:50.621Z,10.51
2022-09-28T04:46:17.550Z,10.51
2022-09-28T04:48:44.860Z,10.50
2022-09-28T04:51:11.836Z,10.52
2022-09-28T04:53:40.120Z,10.53
2022-09-28T04:56:10.908Z,10.51
2022-09-28T04:58:38.571Z,10.54
2022-09-28T05:01:08.354Z,10.51
2022-09-28T05:03:44.546Z,10.53
2022-09-28T05:06:16.056Z,10.55
2022-09-28T05:08:43.247Z,10.56
2022-09-28T05:11:12.890Z,10.56
2022-09-28T05:13:42.258Z,10.59
2022-09-28T05:16:10.532Z,10.60
2022-09-28T05:18:37.456Z,10.59
2022-09-28T05:21:05.247Z,10.60
2022-09-28T05:23:40.782Z,10.61
2022-09-28T05:26:08.476Z,10.58
2022-09-28T05:28:35.264Z,10.59
2022-09-28T05:31:03.811Z,10.58
2022-09-28T05:33:41.833Z,10.60
2022-09-28T05:36:11.891Z,10.63
2022-09-28T05:38:38.850Z,10.63
2022-09-28T05:41:06.961Z,10.64
2022-09-28T05:43:38.613Z,10.56
2022-09-28T05:46:06.669Z,10.55
2022-09-28T05:48:33.722Z,10.56
2022-09-28T05:51:00.503Z,10.56
2022-09-28T05:53:27.568Z,10.53
2022-09-28T05:55:58.372Z,10.49
2022-09-28T05:58:25.384Z,10.49
2022-09-28T06:00:56.728Z,10.45
2022-09-28T06:03:24.477Z,10.45
2022-09-28T06:05:51.971Z,10.38
2022-09-28T06:08:18.873Z,10.34
2022-09-28T06:10:45.651Z,10.36
2022-09-28T06:13:12.568Z,10.36
2022-09-28T06:15:42.578Z,10.33
2022-09-28T06:18:16.992Z,10.33
2022-09-28T06:20:44.187Z,10.32
2022-09-28T06:23:12.773Z,10.32
2022-09-28T06:25:40.291Z,10.32
2022-09-28T06:28:11.075Z,10.32
2022-09-28T06:30:39.211Z,10.33
2022-09-28T06:33:08.496Z,10.38
2022-09-28T06:35:35.287Z,10.37
2022-09-28T06:38:02.819Z,10.39
2022-09-28T06:40:36.786Z,10.42
2022-09-28T06:43:10.637Z,10.45
2022-09-28T06:45:38.890Z,10.48
2022-09-28T06:48:06.605Z,10.51
2022-09-28T06:50:37.870Z,10.68
2022-09-28T06:53:09.660Z,10.85
2022-09-28T06:55:40.204Z,10.87
2022-09-28T06:58:10.517Z,10.83
2022-09-28T07:00:39.507Z,10.83
2022-09-28T07:03:17.557Z,10.82
2022-09-28T07:05:46.791Z,10.80
2022-09-28T07:08:15.350Z,10.78
2022-09-28T07:10:47.799Z,10.83
2022-09-28T07:13:36.321Z,10.86
2022-09-28T07:16:03.713Z,10.85
2022-09-28T07:18:30.608Z,10.86
2022-09-28T07:20:58.004Z,10.88
2022-09-28T07:23:31.049Z,10.88
2022-09-28T07:25:58.469Z,10.92
2022-09-28T07:28:25.622Z,10.95
2022-09-28T07:30:52.967Z,10.97
2022-09-28T07:33:19.924Z,11.00
2022-09-28T07:35:54.538Z,11.04
2022-09-28T07:38:22.124Z,11.06
2022-09-28T07:41:08.285Z,11.06
2022-09-28T07:43:41.819Z,11.07
2022-09-28T07:46:12.249Z,11.13
2022-09-28T07:48:43.112Z,11.18
2022-09-28T07:51:10.497Z,11.23
2022-09-28T07:53:48.371Z,11.21
2022-09-28T07:56:17.558Z,11.25
2022-09-28T07:58:44.379Z,11.30
2022-09-28T08:01:15.080Z,11.35
2022-09-28T08:03:47.284Z,11.42
2022-09-28T08:06:17.226Z,11.46
2022-09-28T08:08:44.933Z,11.53
2022-09-28T08:11:18.007Z,11.59
2022-09-28T08:13:46.606Z,11.63
2022-09-28T08:16:13.764Z,11.66
2022-09-28T08:18:40.657Z,11.70
2022-09-28T08:21:25.908Z,11.74
2022-09-28T08:23:53.218Z,11.78
2022-09-28T08:26:20.082Z,11.82
2022-09-28T08:28:47.965Z,11.86
2022-09-28T08:31:15.106Z,11.89
2022-09-28T08:33:43.076Z,11.94
2022-09-28T08:36:20.410Z,11.96
2022-09-28T08:38:48.072Z,12.05
2022-09-28T08:41:24.458Z,12.12
2022-09-28T08:44:00.725Z,12.17
2022-09-28T08:46:34.426Z,12.23
2022-09-28T08:49:26.856Z,12.30
2022-09-28T08:52:00.395Z,12.35
2022-09-28T08:55:01.934Z,12.39
2022-09-28T08:57:49.595Z,12.40
2022-09-28T09:00:45.829Z,12.42
2022-09-28T09:03:15.281Z,12.48
2022-09-28T09:06:03.762Z,12.55
2022-09-28T09:08:51.876Z,12.60
2022-09-28T09:11:38.518Z,12.65
2022-09-28T09:14:42.810Z,12.69
2022-09-28T09:17:31.240Z,12.76
2022-09-28T09:20:17.782Z,12.71
2022-09-28T09:23:00.157Z,12.70
2022-09-28T09:25:44.515Z,12.72
2022-09-28T09:28:36.349Z,12.82
2022-09-28T09:31:31.930Z,12.89
2022-09-28T09:34:18.063Z,12.97
2022-09-28T09:36:59.916Z,12.97
2022-09-28T09:39:45.480Z,13.05
2022-09-28T09:42:21.503Z,13.02
2022-09-28T09:45:25.941Z,13.02
2022-09-28T09:48:17.397Z,13.06
2022-09-28T09:50:53.754Z,13.03
2022-09-28T09:53:25.735Z,13.06
2022-09-28T09:56:00.110Z,13.06
2022-09-28T09:58:31.736Z,13.09
2022-09-28T10:01:08.266Z,13.15
2022-09-28T10:03:48.412Z,13.27
2022-09-28T10:06:22.218Z,13.44
2022-09-28T10:08:56.230Z,13.50
2022-09-28T10:11:31.879Z,13.52
2022-09-28T10:13:59.286Z,13.54
2022-09-28T10:16:26.208Z,13.62
2022-09-28T10:18:53.264Z,13.69
2022-09-28T10:21:23.361Z,13.76
2022-09-28T10:23:57.193Z,13.87
2022-09-28T10:26:37.906Z,13.94
2022-09-28T10:29:12.570Z,13.96
2022-09-28T10:31:44.270Z,14.04
2022-09-28T10:34:15.812Z,13.97
2022-09-28T10:37:10.001Z,13.97
2022-09-28T10:39:37.185Z,13.88
2022-09-28T10:42:09.084Z,13.88
2022-09-28T10:44:53.992Z,13.86
2022-09-28T10:47:23.535Z,13.89
2022-09-28T10:49:51.799Z,13.95
2022-09-28T10:52:40.571Z,13.94
2022-09-28T10:55:28.261Z,13.97
2022-09-28T10:57:55.513Z,13.99
2022-09-28T11:00:43.697Z,13.98
2022-09-28T11:03:24.251Z,13.99
2022-09-28T11:06:03.141Z,13.97
2022-09-28T11:08:36.374Z,13.98
2022-09-28T11:11:11.883Z,14.03
2022-09-28T11:13:53.796Z,13.99
2022-09-28T11:16:25.868Z,13.99
2022-09-28T11:18:53.168Z,14.01
2022-09-28T11:21:32.931Z,14.03
2022-09-28T11:24:19.487Z,14.01
2022-09-28T11:26:49.946Z,13.99
2022-09-28T11:29:37.747Z,14.00
2022-09-28T11:32:06.654Z,14.08
2022-09-28T11:34:58.073Z,14.03
2022-09-28T11:37:50.191Z,14.00
2022-09-28T11:40:38.939Z,14.04
2022-09-28T11:43:45.068Z,14.08
2022-09-28T11:46:26.921Z,14.15
2022-09-28T11:49:01.513Z,14.22
2022-09-28T11:51:32.149Z,14.24
2022-09-28T11:54:14.567Z,14.24
2022-09-28T11:56:48.017Z,14.25
2022-09-28T11:59:40.114Z,14.27
2022-09-28T12:02:46.185Z,14.27
2022-09-28T12:05:25.253Z,14.28
2022-09-28T12:07:59.421Z,14.30
2022-09-28T12:10:47.690Z,14.33
2022-09-28T12:13:22.980Z,14.38
2022-09-28T12:16:22.990Z,14.44
2022-09-28T12:18:48.614Z,14.53
2022-09-28T12:21:30.555Z,14.58
2022-09-28T12:24:06.648Z,14.60
2022-09-28T12:26:43.832Z,14.62
2022-09-28T12:29:16.149Z,14.64
2022-09-28T12:31:54.949Z,14.62
2022-09-28T12:34:22.836Z,14.59
2022-09-28T12:37:20.649Z,14.58
2022-09-28T12:40:06.772Z,14.61
2022-09-28T12:42:41.473Z,14.62
2022-09-28T12:45:27.873Z,14.60
2022-09-28T12:48:03.660Z,14.61
2022-09-28T12:50:57.061Z,14.65
2022-09-28T12:54:12.179Z,14.68
2022-09-28T12:56:53.851Z,14.71
2022-09-28T12:59:32.358Z,14.76
2022-09-28T13:02:40.548Z,14.83
2022-09-28T13:05:30.341Z,14.86
2022-09-28T13:08:15.372Z,14.87
2022-09-28T13:10:59.111Z,14.88
2022-09-28T13:14:18.518Z,14.91
2022-09-28T13:17:05.861Z,14.96
2022-09-28T13:19:55.216Z,15.03
2022-09-28T13:22:38.959Z,15.08
2022-09-28T13:25:17.099Z,15.10
2022-09-28T13:28:03.012Z,15.10
2022-09-28T13:30:31.294Z,15.08
2022-09-28T13:33:01.339Z,15.09
2022-09-28T13:35:28.747Z,15.11
2022-09-28T13:38:20.942Z,15.11
2022-09-28T13:41:06.347Z,15.14
2022-09-28T13:43:58.011Z,15.14
2022-09-28T13:46:56.357Z,15.16
2022-09-28T13:49:39.512Z,15.18
2022-09-28T13:52:24.186Z,15.22
2022-09-28T13:55:39.494Z,15.17
2022-09-28T13:59:09.369Z,15.15
2022-09-28T14:01:42.628Z,15.15
2022-09-28T14:04:16.357Z,15.15
2022-09-28T14:06:52.448Z,15.18
2022-09-28T14:09:28.171Z,15.16
2022-09-28T14:11:59.062Z,15.15
2022-09-28T14:14:30.743Z,15.14
2022-09-28T14:17:04.881Z,15.15
2022-09-28T14:19:35.244Z,15.23
2022-09-28T14:22:07.211Z,15.21
2022-09-28T14:24:46.626Z,15.21
2022-09-28T14:27:20.500Z,15.19
2022-09-28T14:29:54.337Z,15.22
2022-09-28T14:32:25.213Z,15.19
2022-09-28T14:34:57.880Z,15.19
2022-09-28T14:37:34.201Z,15.18
2022-09-28T14:40:20.161Z,15.20
2022-09-28T14:43:11.843Z,15.19
2022-09-28T14:45:41.327Z,15.19
2022-09-28T14:48:14.754Z,15.19
2022-09-28T14:50:42.260Z,15.20
2022-09-28T14:53:14.540Z,15.23
2022-09-28T14:55:50.834Z,15.22
2022-09-28T14:58:22.909Z,15.24
2022-09-28T15:00:56.531Z,15.22
2022-09-28T15:03:30.102Z,15.20
2022-09-28T15:06:03.534Z,15.20
2022-09-28T15:08:37.733Z,15.19
2022-09-28T15:11:05.871Z,15.19
2022-09-28T15:16:11.848Z,15.18
2022-09-28T15:18:45.444Z,15.16
2022-09-28T15:21:13.622Z,15.16
2022-09-28T15:23:44.539Z,15.14
2022-09-28T15:26:18.433Z,15.13
2022-09-28T15:28:46.248Z,15.12
2022-09-28T15:31:19.511Z,15.08
2022-09-28T15:34:05.752Z,15.06
2022-09-28T15:36:39.934Z,15.05
2022-09-28T15:39:13.808Z,15.04
2022-09-28T15:41:44.735Z,15.05
2022-09-28T15:44:13.617Z,15.06
2022-09-28T15:46:44.691Z,15.09
2022-09-28T15:49:18.900Z,15.13
2022-09-28T15:51:50.612Z,15.13
2022-09-28T15:54:25.543Z,15.12
2022-09-28T15:57:00.133Z,15.12
2022-09-28T15:59:35.570Z,15.13
2022-09-28T16:02:11.692Z,15.12
2022-09-28T16:04:40.977Z,15.11
2022-09-28T16:07:29.493Z,15.08
2022-09-28T16:10:01.289Z,15.08
2022-09-28T16:12:42.483Z,15.09
2022-09-28T16:15:18.642Z,15.10
2022-09-28T16:17:54.707Z,15.11
2022-09-28T16:20:29.195Z,15.10
2022-09-28T16:23:06.124Z,15.09
2022-09-28T16:25:37.738Z,15.11
2022-09-28T16:28:06.887Z,15.14
2022-09-28T16:30:35.026Z,15.13
2022-09-28T16:33:07.034Z,15.14
2022-09-28T16:35:40.767Z,15.13
2022-09-28T16:38:16.070Z,15.15
2022-09-28T16:40:58.898Z,15.14
2022-09-28T16:43:49.960Z,15.11
2022-09-28T16:46:23.728Z,15.11
2022-09-28T16:48:52.781Z,15.11
2022-09-28T16:51:23.223Z,15.11
2022-09-28T16:54:04.347Z,15.11
2022-09-28T16:56:33.580Z,15.10
2022-09-28T16:59:03.487Z,15.09
2022-09-28T17:01:31.873Z,15.07
2022-09-28T17:03:59.760Z,15.05
2022-09-28T17:06:28.165Z,15.04
2022-09-28T17:09:00.732Z,15.03
2022-09-28T17:11:28.201Z,15.01
2022-09-28T17:13:59.367Z,14.97
2022-09-28T17:17:03.811Z,14.92
2022-09-28T17:19:20.924Z,14.88
2022-09-28T17:21:49.977Z,14.84
2022-09-28T17:24:24.114Z,14.81
2022-09-28T17:26:55.990Z,14.78
2022-09-28T17:29:23.864Z,14.76
2022-09-28T17:31:50.667Z,14.74
2022-09-28T17:34:17.587Z,14.69
2022-09-28T17:36:45.618Z,14.66
2022-09-28T17:39:19.820Z,14.64
2022-09-28T17:41:46.944Z,14.62
2022-09-28T17:44:16.857Z,14.59
2022-09-28T17:46:50.965Z,14.50
2022-09-28T17:49:18.841Z,14.49
2022-09-28T17:51:45.698Z,14.48
2022-09-28T17:54:14.309Z,14.42
2022-09-28T17:56:42.577Z,14.40
2022-09-28T17:59:13.165Z,14.36
2022-09-28T18:01:40.750Z,14.30
2022-09-28T18:04:13.214Z,14.27
2022-09-28T18:06:45.840Z,14.23
2022-09-28T18:09:14.949Z,14.20
2022-09-28T18:11:44.493Z,14.16
2022-09-28T18:14:11.508Z,14.11
2022-09-28T18:16:38.345Z,14.09
2022-09-28T18:19:05.171Z,14.09
2022-09-28T18:21:33.003Z,14.07
2022-09-28T18:23:59.857Z,14.05
2022-09-28T18:26:26.653Z,14.03
2022-09-28T18:28:56.539Z,14.05
2022-09-28T18:31:23.497Z,14.06
2022-09-28T18:33:50.361Z,14.05
2022-09-28T18:36:17.211Z,14.03
2022-09-28T18:38:43.969Z,14.03
2022-09-28T18:41:16.025Z,14.01
2022-09-28T18:44:00.668Z,13.99
2022-09-28T18:46:29.271Z,13.96
2022-09-28T18:48:56.421Z,13.96
2022-09-28T18:51:23.457Z,13.93
2022-09-28T18:53:50.427Z,13.91
2022-09-28T18:56:18.489Z,13.92
2022-09-28T18:58:46.721Z,13.91
2022-09-28T19:01:33.845Z,13.91
2022-09-28T19:04:02.284Z,13.92
2022-09-28T19:06:30.094Z,13.89
2022-09-28T19:08:57.466Z,13.87
2022-09-28T19:11:25.515Z,13.86
2022-09-28T19:13:54.145Z,13.82
2022-09-28T19:16:24.289Z,13.79
2022-09-28T19:18:52.609Z,13.78
2022-09-28T19:21:19.811Z,13.79
2022-09-28T19:23:49.576Z,13.81
2022-09-28T19:26:21.098Z,13.82
2022-09-28T19:28:48.603Z,13.84
2022-09-28T19:31:15.578Z,13.82
2022-09-28T19:33:42.419Z,13.79
2022-09-28T19:36:13.305Z,13.78
2022-09-28T19:38:41.272Z,13.76
2022-09-28T19:41:51.470Z,13.75
2022-09-28T19:44:25.725Z,13.73
2022-09-28T19:47:04.990Z,13.71
2022-09-28T19:49:36.883Z,13.67
2022-09-28T19:52:16.169Z,13.65
2022-09-28T19:54:44.654Z,13.66
2022-09-28T19:57:16.163Z,13.66
2022-09-28T19:59:43.117Z,13.67
2022-09-28T20:02:10.990Z,13.64
2022-09-28T20:04:37.809Z,13.65
2022-09-28T20:07:05.253Z,13.66
2022-09-28T20:09:33.071Z,13.65
2022-09-28T20:11:59.937Z,13.62
2022-09-28T20:14:32.872Z,13.62
2022-09-28T20:17:00.917Z,13.61
2022-09-28T20:19:27.679Z,13.57
2022-09-28T20:21:55.020Z,13.55
2022-09-28T20:24:21.782Z,13.51
2022-09-28T20:26:49.755Z,13.51
2022-09-28T20:29:16.552Z,13.48
2022-09-28T20:31:44.218Z,13.46
2022-09-28T20:34:12.365Z,13.43
2022-09-28T20:36:43.338Z,13.40
2022-09-28T20:39:11.237Z,13.39
2022-09-28T20:41:38.106Z,13.37
2022-09-28T20:44:06.637Z,13.36
2022-09-28T20:46:36.945Z,13.31
2022-09-28T20:49:05.003Z,13.26
2022-09-28T20:51:32.272Z,13.23
2022-09-28T20:53:59.742Z,13.20
2022-09-28T20:56:29.205Z,13.19
2022-09-28T20:58:57.068Z,13.18
2022-09-28T21:01:26.542Z,13.16
2022-09-28T21:03:55.987Z,13.13
2022-09-28T21:06:26.186Z,13.14
2022-09-28T21:08:53.472Z,13.16
2022-09-28T21:11:23.628Z,13.14
2022-09-28T21:13:55.696Z,13.13
2022-09-28T21:16:22.469Z,13.13
2022-09-28T21:18:49.336Z,13.09
2022-09-28T21:21:18.357Z,13.07
2022-09-28T21:23:53.167Z,13.08
2022-09-28T21:26:25.220Z,13.12
2022-09-28T21:28:55.724Z,13.13
2022-09-28T21:31:28.515Z,13.11
2022-09-28T21:33:56.527Z,13.05
2022-09-28T21:36:23.309Z,13.02
2022-09-28T21:38:50.115Z,12.97
2022-09-28T21:41:17.395Z,12.97
2022-09-28T21:43:44.259Z,12.95
2022-09-28T21:46:11.476Z,12.93
2022-09-28T21:48:38.357Z,12.90
2022-09-28T21:51:07.879Z,12.86
2022-09-28T21:53:43.047Z,12.82
2022-09-28T21:56:11.831Z,12.79
2022-09-28T21:58:40.284Z,12.76
2022-09-28T22:01:15.665Z,12.73
2022-09-28T22:03:44.198Z,12.71
2022-09-28T22:06:11.534Z,12.67
2022-09-28T22:08:39.757Z,12.65
2022-09-28T22:11:12.461Z,12.62
2022-09-28T22:13:52.541Z,12.58
2022-09-28T22:16:22.356Z,12.56
2022-09-28T22:18:49.850Z,12.54
2022-09-28T22:21:23.587Z,12.52
2022-09-28T22:23:51.207Z,12.50
2022-09-28T22:26:23.715Z,12.46
2022-09-28T22:28:53.809Z,12.40
2022-09-28T22:31:24.007Z,12.40
2022-09-28T22:33:50.935Z,12.39
2022-09-28T22:36:17.938Z,12.39
2022-09-28T22:38:45.783Z,12.41
2022-09-28T22:41:16.050Z,12.40
2022-09-28T22:43:43.780Z,12.41
2022-09-28T22:46:16.876Z,12.42
2022-09-28T22:48:54.363Z,12.42
2022-09-28T22:51:22.271Z,12.39
2022-09-28T22:53:49.339Z,12.38
2022-09-28T22:56:19.018Z,12.38
2022-09-28T22:58:47.007Z,12.40
2022-09-28T23:01:18.723Z,12.41
2022-09-28T23:03:48.641Z,12.37
2022-09-28T23:06:17.983Z,12.36
2022-09-28T23:08:47.544Z,12.30
2022-09-28T23:11:15.820Z,12.28
2022-09-28T23:13:43.887Z,12.24
2022-09-28T23:16:15.174Z,12.19
2022-09-28T23:18:44.895Z,12.17
2022-09-28T23:21:16.328Z,12.18
2022-09-28T23:23:52.710Z,12.20
2022-09-28T23:26:23.098Z,12.19
2022-09-28T23:28:50.174Z,12.16
2022-09-28T23:31:28.608Z,12.13
2022-09-28T23:34:06.684Z,12.11
2022-09-28T23:36:34.564Z,12.11
2022-09-28T23:39:01.819Z,12.13
2022-09-28T23:41:28.950Z,12.13
2022-09-28T23:43:56.255Z,12.14
2022-09-28T23:46:23.605Z,12.16
2022-09-28T23:48:50.846Z,12.17
2022-09-28T23:51:17.685Z,12.15
2022-09-28T23:53:44.997Z,12.14
2022-09-28T23:56:12.514Z,12.11
2022-09-28T23:58:39.279Z,12.06
